Urubici, Brazil
Current Conditions -  °F | °C
As of 11:20 PM on Tuesday 21 Oct 2014 (Local Time) from SBCM Reporting Station
Broken Clouds Broken Clouds  
Wind Chill: 64°   Ceiling: 3500
Heat Index: 64°   Visibility: 6mi
Dew Point: 57°   Wind: 5mph
Humidity: 77%   Direction: 90°E
Pressure: 30.21"   Gusts: NA
Location:  28.02°S, 49.59°W
Report Text: SBCM 220120Z 09004KT 9999 SCT020 BKN035 18/14 Q1023
Loading
Personal Weather Stations






























Interactive Weather Map
Tropical Storm Tracking
New forecast layout! Learn more

10-Day Weather Forecast

Advertisements
Track Severe Weather on mobile